createdAt,value
2018-08-03T06:10:15.067Z,57.60
2018-08-03T06:12:43.371Z,59.40
2018-08-03T06:15:12.185Z,59.30
2018-08-03T06:17:40.771Z,59.30
2018-08-03T06:20:10.987Z,59.70
2018-08-03T06:22:39.367Z,59.70
2018-08-03T06:25:08.462Z,59.60
2018-08-03T06:27:36.886Z,59.50
2018-08-03T06:30:06.759Z,59.40
2018-08-03T06:32:35.149Z,59.50
2018-08-03T06:35:03.530Z,59.40
2018-08-03T06:37:31.855Z,59.40
2018-08-03T06:40:00.202Z,59.50
2018-08-03T06:42:28.556Z,59.70
2018-08-03T06:44:56.900Z,60.30
2018-08-03T06:47:25.277Z,59.60
2018-08-03T06:49:53.567Z,59.40
2018-08-03T06:52:21.900Z,59.50
2018-08-03T06:57:18.470Z,60.10
2018-08-03T06:59:46.873Z,59.90
2018-08-03T07:02:15.291Z,59.70
2018-08-03T07:04:43.676Z,59.80
2018-08-03T07:07:12.061Z,59.30
2018-08-03T07:09:40.437Z,59.20
2018-08-03T07:12:08.772Z,59.00
2018-08-03T07:14:37.205Z,58.90
2018-08-03T07:17:05.527Z,59.10
2018-08-03T07:19:34.299Z,58.70
2018-08-03T07:22:02.736Z,58.70
2018-08-03T07:24:31.182Z,58.60
2018-08-03T07:26:59.470Z,58.30
2018-08-03T07:29:27.794Z,58.30
2018-08-03T07:31:56.188Z,58.30
2018-08-03T07:34:24.518Z,58.10
2018-08-03T07:36:53.013Z,58.10
2018-08-03T07:39:21.382Z,58.10
2018-08-03T07:41:49.822Z,57.90
2018-08-03T07:44:18.280Z,57.60
2018-08-03T07:46:46.625Z,57.40
2018-08-03T07:49:15.196Z,57.50
2018-08-03T07:51:43.478Z,57.30
2018-08-03T07:54:11.793Z,57.00
2018-08-03T07:56:40.096Z,56.70
2018-08-03T07:59:08.575Z,56.70
2018-08-03T08:01:36.969Z,56.40
2018-08-03T08:04:05.315Z,56.10
2018-08-03T08:09:01.803Z,55.80
2018-08-03T08:11:30.130Z,55.50
2018-08-03T08:13:58.435Z,55.40
2018-08-03T08:16:26.806Z,55.30
2018-08-03T08:18:55.272Z,55.20
2018-08-03T08:23:51.803Z,54.80
2018-08-03T08:26:20.158Z,54.80
2018-08-03T08:28:48.663Z,54.70
2018-08-03T08:31:17.053Z,54.50
2018-08-03T08:33:45.356Z,54.40
2018-08-03T08:36:13.694Z,54.00
2018-08-03T08:38:42.088Z,54.10
2018-08-03T08:41:10.556Z,54.10
2018-08-03T08:43:38.933Z,54.00
2018-08-03T08:46:07.338Z,53.90
2018-08-03T08:48:35.782Z,53.70
2018-08-03T08:51:04.134Z,53.60
2018-08-03T08:53:32.541Z,53.40
2018-08-03T08:56:00.970Z,53.40
2018-08-03T08:58:29.280Z,53.20
2018-08-03T09:00:57.633Z,53.10
2018-08-03T09:03:26.159Z,53.10
2018-08-03T09:05:54.560Z,53.00
2018-08-03T09:08:22.934Z,52.90
2018-08-03T09:10:51.261Z,53.00
2018-08-03T09:13:20.883Z,53.00
2018-08-03T09:15:49.241Z,52.80
2018-08-03T09:18:17.613Z,52.80
2018-08-03T09:20:53.552Z,52.70
2018-08-03T09:23:21.846Z,52.60
2018-08-03T09:25:50.140Z,52.60
2018-08-03T09:28:18.485Z,52.40
2018-08-03T09:30:46.796Z,52.60
2018-08-03T09:33:15.111Z,52.20
2018-08-03T09:35:43.424Z,52.00
2018-08-03T09:40:39.783Z,52.00
2018-08-03T09:43:08.153Z,52.00
2018-08-03T09:45:36.540Z,51.90
2018-08-03T09:48:05.754Z,51.90
2018-08-03T09:50:34.156Z,51.80
2018-08-03T09:53:02.534Z,52.10
2018-08-03T09:57:58.899Z,51.70
2018-08-03T10:00:32.677Z,51.60
2018-08-03T10:03:00.983Z,51.60
2018-08-03T10:05:29.463Z,51.30
2018-08-03T10:07:57.779Z,51.50
2018-08-03T10:10:26.306Z,51.90
2018-08-03T10:12:54.686Z,52.30
2018-08-03T10:15:22.965Z,51.50
2018-08-03T10:17:51.537Z,51.40
2018-08-03T10:20:19.835Z,51.20
2018-08-03T10:22:48.156Z,51.30
2018-08-03T10:25:16.498Z,51.30
2018-08-03T10:27:44.799Z,51.60
2018-08-03T10:30:13.148Z,51.40
2018-08-03T10:32:41.528Z,51.30
2018-08-03T10:35:09.968Z,51.30
2018-08-03T10:37:38.249Z,51.20
2018-08-03T10:40:06.711Z,51.10
2018-08-03T10:42:35.006Z,51.00
2018-08-03T10:45:03.338Z,51.20
2018-08-03T10:47:31.666Z,51.10
2018-08-03T10:50:00.017Z,51.10
2018-08-03T10:52:28.309Z,51.10
2018-08-03T10:54:56.698Z,51.10
2018-08-03T10:57:25.030Z,50.90
2018-08-03T10:59:53.319Z,51.00
2018-08-03T11:04:49.729Z,51.00
2018-08-03T11:07:18.158Z,51.30
2018-08-03T11:09:46.551Z,51.20
2018-08-03T11:12:14.848Z,51.20
2018-08-03T11:14:43.171Z,51.00
2018-08-03T11:17:11.570Z,51.00
2018-08-03T11:19:40.015Z,51.10
2018-08-03T11:22:08.572Z,50.90
2018-08-03T11:24:36.944Z,50.80
2018-08-03T11:27:05.838Z,50.80
2018-08-03T11:29:34.166Z,50.70
2018-08-03T11:32:02.480Z,50.80
2018-08-03T11:34:30.843Z,50.90
2018-08-03T11:36:59.210Z,50.90
2018-08-03T11:41:55.610Z,50.80
2018-08-03T11:44:23.976Z,50.70
2018-08-03T11:46:52.320Z,50.80
2018-08-03T11:49:20.749Z,50.60
2018-08-03T11:51:49.164Z,50.70
2018-08-03T11:54:17.530Z,50.50
2018-08-03T11:56:45.878Z,50.50
2018-08-03T11:59:14.298Z,50.50
2018-08-03T12:01:42.736Z,50.60
2018-08-03T12:04:11.253Z,50.50
2018-08-03T12:06:39.739Z,50.60
2018-08-03T12:09:08.252Z,50.50
2018-08-03T12:11:36.723Z,50.50
2018-08-03T12:14:05.068Z,50.20
2018-08-03T12:16:33.485Z,50.90
2018-08-03T12:19:01.910Z,50.20
2018-08-03T12:21:30.276Z,50.40
2018-08-03T12:23:58.755Z,50.20
2018-08-03T12:26:27.109Z,50.20
2018-08-03T12:28:55.695Z,50.20
2018-08-03T12:31:24.148Z,50.30
2018-08-03T12:33:52.685Z,50.20
2018-08-03T12:36:21.128Z,50.30
2018-08-03T12:41:17.731Z,50.20
2018-08-03T12:43:46.124Z,50.30
2018-08-03T12:46:14.516Z,50.30
2018-08-03T12:48:42.905Z,50.20
2018-08-03T12:51:11.276Z,50.10
2018-08-03T12:53:39.664Z,50.10
2018-08-03T12:56:08.057Z,50.10
2018-08-03T12:58:36.421Z,50.10
2018-08-03T13:01:04.840Z,50.00
2018-08-03T13:03:33.502Z,50.00
2018-08-03T13:06:01.887Z,49.90
2018-08-03T13:08:30.510Z,49.70
2018-08-03T13:10:58.808Z,49.70
2018-08-03T13:13:27.260Z,49.60
2018-08-03T13:15:55.759Z,49.70
2018-08-03T13:18:24.264Z,49.50
2018-08-03T13:20:52.683Z,49.50
2018-08-03T13:23:21.103Z,49.40
2018-08-03T13:25:49.420Z,49.40
2018-08-03T13:28:17.758Z,49.30
2018-08-03T13:30:46.145Z,49.30
2018-08-03T13:33:14.580Z,49.30
2018-08-03T13:35:42.871Z,49.20
2018-08-03T13:38:11.260Z,49.00
2018-08-03T13:40:39.695Z,49.00
2018-08-03T13:43:08.045Z,49.00
2018-08-03T13:45:36.420Z,48.90
2018-08-03T13:48:04.771Z,48.90
2018-08-03T13:50:33.104Z,48.90
2018-08-03T13:53:01.489Z,48.80
2018-08-03T13:55:29.942Z,48.80
2018-08-03T13:57:58.305Z,48.80
2018-08-03T14:00:26.664Z,48.70
2018-08-03T14:02:54.997Z,48.60
2018-08-03T14:07:51.458Z,48.60
2018-08-03T14:10:19.811Z,48.40
2018-08-03T14:13:04.632Z,48.30
2018-08-03T14:16:21.859Z,48.30
2018-08-03T14:18:58.252Z,48.20
2018-08-03T14:21:26.587Z,48.30
2018-08-03T14:23:54.925Z,48.30
2018-08-03T14:26:23.300Z,48.10
2018-08-03T14:28:51.667Z,48.00
2018-08-03T14:31:20.034Z,48.00
2018-08-03T14:33:48.270Z,47.90
2018-08-03T14:36:16.602Z,47.80
2018-08-03T14:38:44.912Z,47.90
2018-08-03T14:41:13.255Z,47.70
2018-08-03T14:43:41.614Z,47.60
2018-08-03T14:46:09.942Z,47.70
2018-08-03T14:48:38.315Z,47.60
2018-08-03T14:51:06.763Z,47.60
2018-08-03T14:53:35.206Z,47.90
2018-08-03T14:56:03.525Z,47.50
2018-08-03T14:58:31.993Z,47.60
2018-08-03T15:01:00.340Z,47.40
2018-08-03T15:03:29.642Z,47.50
2018-08-03T15:05:57.935Z,47.40
2018-08-03T15:08:26.532Z,47.30
2018-08-03T15:10:54.928Z,47.30
2018-08-03T15:13:23.302Z,47.20
2018-08-03T15:15:51.638Z,47.30
2018-08-03T15:18:19.957Z,47.10
2018-08-03T15:20:48.353Z,47.20
2018-08-03T15:23:16.694Z,47.20
2018-08-03T15:25:45.062Z,47.10
2018-08-03T15:28:13.475Z,47.00
2018-08-03T15:30:41.860Z,47.10
2018-08-03T15:33:10.296Z,47.00
2018-08-03T15:35:38.663Z,46.70
2018-08-03T15:38:07.134Z,46.70
2018-08-03T15:40:35.542Z,46.70
2018-08-03T15:45:32.281Z,46.90
2018-08-03T15:48:00.737Z,46.70
2018-08-03T15:52:57.172Z,46.60
2018-08-03T15:55:25.547Z,46.40
2018-08-03T15:57:53.864Z,46.30
2018-08-03T16:00:22.180Z,46.30
2018-08-03T16:02:50.524Z,46.30
2018-08-03T16:07:46.950Z,46.30
2018-08-03T16:10:15.379Z,46.20
2018-08-03T16:12:43.737Z,46.10
2018-08-03T16:15:12.070Z,46.10
2018-08-03T16:17:40.371Z,46.00
2018-08-03T16:20:08.682Z,46.00
2018-08-03T16:22:37.078Z,46.20
2018-08-03T16:25:06.150Z,45.90
2018-08-03T16:27:34.482Z,45.80
2018-08-03T16:30:02.822Z,45.70
2018-08-03T16:32:31.249Z,45.70
